sensor_id;sensor_type;location;lat;lon;timestamp;P1;durP1;ratioP1;P2;durP2;ratioP2
422;SDS011;198;48.752;9.180;2023-07-20T00:01:03;10.03;;;1.80;;
422;SDS011;198;48.752;9.180;2023-07-20T00:03:28;3.43;;;2.13;;
422;SDS011;198;48.752;9.180;2023-07-20T00:05:54;8.13;;;2.07;;
422;SDS011;198;48.752;9.180;2023-07-20T00:08:19;5.23;;;2.57;;
422;SDS011;198;48.752;9.180;2023-07-20T00:10:45;3.30;;;2.00;;
422;SDS011;198;48.752;9.180;2023-07-20T00:13:11;2.47;;;1.80;;
422;SDS011;198;48.752;9.180;2023-07-20T00:15:37;2.40;;;1.60;;
422;SDS011;198;48.752;9.180;2023-07-20T00:18:06;5.50;;;2.20;;
422;SDS011;198;48.752;9.180;2023-07-20T00:20:31;2.60;;;1.63;;
422;SDS011;198;48.752;9.180;2023-07-20T00:22:57;9.70;;;1.70;;
422;SDS011;198;48.752;9.180;2023-07-20T00:25:23;3.37;;;1.70;;
422;SDS011;198;48.752;9.180;2023-07-20T00:27:50;11.07;;;1.70;;
422;SDS011;198;48.752;9.180;2023-07-20T00:30:15;5.13;;;2.17;;
422;SDS011;198;48.752;9.180;2023-07-20T00:32:44;3.93;;;1.70;;
422;SDS011;198;48.752;9.180;2023-07-20T00:35:09;2.57;;;1.80;;
422;SDS011;198;48.752;9.180;2023-07-20T00:37:36;4.30;;;2.10;;
422;SDS011;198;48.752;9.180;2023-07-20T00:40:04;7.20;;;2.03;;
422;SDS011;198;48.752;9.180;2023-07-20T00:42:32;2.07;;;1.70;;
422;SDS011;198;48.752;9.180;2023-07-20T00:44:58;4.10;;;1.93;;
422;SDS011;198;48.752;9.180;2023-07-20T00:47:23;1.40;;;1.30;;
422;SDS011;198;48.752;9.180;2023-07-20T00:49:49;3.07;;;2.03;;
422;SDS011;198;48.752;9.180;2023-07-20T00:52:16;3.03;;;2.10;;
422;SDS011;198;48.752;9.180;2023-07-20T00:54:43;3.20;;;1.77;;
422;SDS011;198;48.752;9.180;2023-07-20T00:57:09;2.23;;;1.80;;
422;SDS011;198;48.752;9.180;2023-07-20T00:59:35;9.30;;;2.20;;
422;SDS011;198;48.752;9.180;2023-07-20T01:02:01;5.20;;;2.33;;
422;SDS011;198;48.752;9.180;2023-07-20T01:04:27;4.10;;;2.00;;
422;SDS011;198;48.752;9.180;2023-07-20T01:06:58;4.23;;;2.40;;
422;SDS011;198;48.752;9.180;2023-07-20T01:09:42;2.47;;;1.80;;
422;SDS011;198;48.752;9.180;2023-07-20T01:12:24;3.77;;;1.90;;
422;SDS011;198;48.752;9.180;2023-07-20T01:14:52;3.27;;;2.00;;
422;SDS011;198;48.752;9.180;2023-07-20T01:17:19;3.30;;;2.07;;
422;SDS011;198;48.752;9.180;2023-07-20T01:19:44;2.80;;;2.27;;
422;SDS011;198;48.752;9.180;2023-07-20T01:25:24;7.30;;;2.03;;
422;SDS011;198;48.752;9.180;2023-07-20T01:33:19;2.00;;;1.50;;
422;SDS011;198;48.752;9.180;2023-07-20T01:35:57;2.83;;;1.87;;
422;SDS011;198;48.752;9.180;2023-07-20T01:38:24;7.00;;;2.00;;
422;SDS011;198;48.752;9.180;2023-07-20T01:40:50;2.10;;;1.70;;
422;SDS011;198;48.752;9.180;2023-07-20T01:43:16;4.00;;;2.27;;
422;SDS011;198;48.752;9.180;2023-07-20T01:45:42;4.73;;;1.80;;
422;SDS011;198;48.752;9.180;2023-07-20T01:48:08;2.93;;;1.80;;
422;SDS011;198;48.752;9.180;2023-07-20T01:50:34;2.30;;;1.47;;
422;SDS011;198;48.752;9.180;2023-07-20T01:53:00;1.90;;;1.63;;
422;SDS011;198;48.752;9.180;2023-07-20T01:55:26;7.00;;;2.83;;
422;SDS011;198;48.752;9.180;2023-07-20T01:57:52;6.67;;;1.87;;
422;SDS011;198;48.752;9.180;2023-07-20T02:00:18;3.23;;;2.20;;
422;SDS011;198;48.752;9.180;2023-07-20T02:02:49;3.03;;;1.40;;
422;SDS011;198;48.752;9.180;2023-07-20T02:05:14;5.87;;;2.13;;
422;SDS011;198;48.752;9.180;2023-07-20T02:07:40;3.43;;;1.90;;
422;SDS011;198;48.752;9.180;2023-07-20T02:10:06;3.57;;;2.03;;
422;SDS011;198;48.752;9.180;2023-07-20T02:12:31;2.60;;;1.90;;
422;SDS011;198;48.752;9.180;2023-07-20T02:14:57;4.77;;;2.03;;
422;SDS011;198;48.752;9.180;2023-07-20T02:17:22;5.40;;;2.33;;
422;SDS011;198;48.752;9.180;2023-07-20T02:19:50;3.00;;;1.93;;
422;SDS011;198;48.752;9.180;2023-07-20T02:22:17;8.00;;;2.00;;
422;SDS011;198;48.752;9.180;2023-07-20T02:24:43;5.13;;;2.40;;
422;SDS011;198;48.752;9.180;2023-07-20T02:27:08;3.47;;;1.70;;
422;SDS011;198;48.752;9.180;2023-07-20T02:29:34;8.10;;;1.93;;
422;SDS011;198;48.752;9.180;2023-07-20T02:32:00;6.33;;;1.70;;
422;SDS011;198;48.752;9.180;2023-07-20T02:34:26;2.67;;;1.50;;
422;SDS011;198;48.752;9.180;2023-07-20T02:36:52;5.20;;;2.37;;
422;SDS011;198;48.752;9.180;2023-07-20T02:39:17;3.63;;;1.77;;
422;SDS011;198;48.752;9.180;2023-07-20T02:41:43;5.63;;;2.07;;
422;SDS011;198;48.752;9.180;2023-07-20T02:44:08;9.30;;;2.30;;
422;SDS011;198;48.752;9.180;2023-07-20T02:46:34;4.67;;;2.40;;
422;SDS011;198;48.752;9.180;2023-07-20T02:49:00;5.07;;;1.90;;
422;SDS011;198;48.752;9.180;2023-07-20T02:51:26;4.50;;;2.20;;
422;SDS011;198;48.752;9.180;2023-07-20T02:53:51;4.40;;;2.23;;
422;SDS011;198;48.752;9.180;2023-07-20T02:56:17;3.03;;;1.83;;
422;SDS011;198;48.752;9.180;2023-07-20T02:58:43;6.13;;;2.27;;
422;SDS011;198;48.752;9.180;2023-07-20T03:01:09;7.00;;;2.30;;
422;SDS011;198;48.752;9.180;2023-07-20T03:03:36;2.33;;;1.60;;
422;SDS011;198;48.752;9.180;2023-07-20T03:06:04;5.40;;;2.00;;
422;SDS011;198;48.752;9.180;2023-07-20T03:08:30;3.93;;;2.00;;
422;SDS011;198;48.752;9.180;2023-07-20T03:10:55;3.90;;;2.03;;
422;SDS011;198;48.752;9.180;2023-07-20T03:13:21;2.10;;;1.70;;
422;SDS011;198;48.752;9.180;2023-07-20T03:15:47;3.37;;;2.50;;
422;SDS011;198;48.752;9.180;2023-07-20T03:18:12;7.13;;;2.20;;
422;SDS011;198;48.752;9.180;2023-07-20T03:20:38;3.77;;;1.87;;
422;SDS011;198;48.752;9.180;2023-07-20T03:23:03;4.03;;;2.60;;
422;SDS011;198;48.752;9.180;2023-07-20T03:25:29;2.93;;;2.17;;
422;SDS011;198;48.752;9.180;2023-07-20T03:27:55;6.20;;;2.37;;
422;SDS011;198;48.752;9.180;2023-07-20T03:30:20;2.83;;;2.30;;
422;SDS011;198;48.752;9.180;2023-07-20T03:32:46;6.43;;;2.43;;
422;SDS011;198;48.752;9.180;2023-07-20T03:35:11;3.80;;;1.93;;
422;SDS011;198;48.752;9.180;2023-07-20T03:37:37;4.70;;;2.70;;
422;SDS011;198;48.752;9.180;2023-07-20T03:40:03;2.17;;;1.87;;
422;SDS011;198;48.752;9.180;2023-07-20T03:42:29;4.20;;;2.07;;
422;SDS011;198;48.752;9.180;2023-07-20T03:44:55;3.27;;;1.90;;
422;SDS011;198;48.752;9.180;2023-07-20T03:47:21;8.50;;;2.13;;
422;SDS011;198;48.752;9.180;2023-07-20T03:49:47;4.23;;;1.70;;
422;SDS011;198;48.752;9.180;2023-07-20T03:52:12;12.13;;;1.90;;
422;SDS011;198;48.752;9.180;2023-07-20T03:54:38;4.13;;;2.23;;
422;SDS011;198;48.752;9.180;2023-07-20T03:57:03;3.73;;;2.07;;
422;SDS011;198;48.752;9.180;2023-07-20T03:59:29;7.07;;;2.10;;
422;SDS011;198;48.752;9.180;2023-07-20T04:01:54;5.10;;;1.80;;
422;SDS011;198;48.752;9.180;2023-07-20T04:04:20;3.10;;;1.80;;
422;SDS011;198;48.752;9.180;2023-07-20T04:06:45;6.90;;;1.77;;
422;SDS011;198;48.752;9.180;2023-07-20T04:09:11;4.73;;;1.90;;
422;SDS011;198;48.752;9.180;2023-07-20T04:11:37;8.93;;;2.47;;
422;SDS011;198;48.752;9.180;2023-07-20T04:14:03;6.07;;;2.17;;
422;SDS011;198;48.752;9.180;2023-07-20T04:16:29;3.20;;;1.47;;
422;SDS011;198;48.752;9.180;2023-07-20T04:18:55;3.90;;;1.70;;
422;SDS011;198;48.752;9.180;2023-07-20T04:21:21;3.13;;;1.70;;
422;SDS011;198;48.752;9.180;2023-07-20T04:23:47;4.33;;;2.13;;
422;SDS011;198;48.752;9.180;2023-07-20T04:26:12;2.50;;;1.80;;
422;SDS011;198;48.752;9.180;2023-07-20T04:28:39;2.57;;;2.00;;
422;SDS011;198;48.752;9.180;2023-07-20T04:31:11;1.57;;;1.50;;
422;SDS011;198;48.752;9.180;2023-07-20T04:33:40;4.73;;;1.60;;
422;SDS011;198;48.752;9.180;2023-07-20T04:36:05;2.80;;;2.23;;
422;SDS011;198;48.752;9.180;2023-07-20T04:38:32;2.90;;;1.90;;
422;SDS011;198;48.752;9.180;2023-07-20T04:40:57;7.90;;;3.53;;
422;SDS011;198;48.752;9.180;2023-07-20T04:43:23;4.70;;;2.00;;
422;SDS011;198;48.752;9.180;2023-07-20T04:45:49;2.20;;;1.40;;
422;SDS011;198;48.752;9.180;2023-07-20T04:48:15;2.93;;;1.70;;
422;SDS011;198;48.752;9.180;2023-07-20T04:50:41;7.10;;;2.27;;
422;SDS011;198;48.752;9.180;2023-07-20T04:53:10;6.37;;;2.50;;
422;SDS011;198;48.752;9.180;2023-07-20T04:55:36;8.83;;;1.63;;
422;SDS011;198;48.752;9.180;2023-07-20T04:58:03;3.53;;;1.80;;
422;SDS011;198;48.752;9.180;2023-07-20T05:00:29;12.27;;;3.93;;
422;SDS011;198;48.752;9.180;2023-07-20T05:02:55;5.20;;;1.70;;
422;SDS011;198;48.752;9.180;2023-07-20T05:05:21;17.33;;;2.23;;
422;SDS011;198;48.752;9.180;2023-07-20T05:07:47;2.57;;;1.90;;
422;SDS011;198;48.752;9.180;2023-07-20T05:10:12;2.30;;;1.67;;
422;SDS011;198;48.752;9.180;2023-07-20T05:12:38;6.47;;;2.07;;
422;SDS011;198;48.752;9.180;2023-07-20T05:15:04;3.00;;;2.00;;
422;SDS011;198;48.752;9.180;2023-07-20T05:17:29;4.83;;;2.17;;
422;SDS011;198;48.752;9.180;2023-07-20T05:19:55;7.40;;;1.80;;
422;SDS011;198;48.752;9.180;2023-07-20T05:22:20;6.03;;;2.20;;
422;SDS011;198;48.752;9.180;2023-07-20T05:24:46;7.33;;;2.17;;
422;SDS011;198;48.752;9.180;2023-07-20T05:27:11;4.20;;;2.20;;
422;SDS011;198;48.752;9.180;2023-07-20T05:29:37;3.03;;;2.10;;
422;SDS011;198;48.752;9.180;2023-07-20T05:32:03;2.30;;;1.70;;
422;SDS011;198;48.752;9.180;2023-07-20T05:34:28;9.53;;;1.97;;
422;SDS011;198;48.752;9.180;2023-07-20T05:36:54;2.90;;;1.40;;
422;SDS011;198;48.752;9.180;2023-07-20T05:39:20;5.10;;;1.87;;
422;SDS011;198;48.752;9.180;2023-07-20T05:41:46;4.50;;;2.27;;
422;SDS011;198;48.752;9.180;2023-07-20T05:44:11;4.20;;;2.10;;
422;SDS011;198;48.752;9.180;2023-07-20T05:46:37;2.87;;;2.00;;
422;SDS011;198;48.752;9.180;2023-07-20T05:49:02;5.80;;;2.07;;
422;SDS011;198;48.752;9.180;2023-07-20T05:51:28;12.33;;;2.80;;
422;SDS011;198;48.752;9.180;2023-07-20T05:53:53;8.60;;;2.07;;
422;SDS011;198;48.752;9.180;2023-07-20T05:56:19;3.73;;;1.63;;
422;SDS011;198;48.752;9.180;2023-07-20T05:58:45;3.40;;;2.00;;
422;SDS011;198;48.752;9.180;2023-07-20T06:01:10;3.60;;;1.70;;
422;SDS011;198;48.752;9.180;2023-07-20T06:03:36;3.30;;;1.83;;
422;SDS011;198;48.752;9.180;2023-07-20T06:06:02;3.63;;;1.83;;
422;SDS011;198;48.752;9.180;2023-07-20T06:08:31;3.17;;;1.90;;
422;SDS011;198;48.752;9.180;2023-07-20T06:10:57;5.10;;;1.97;;
422;SDS011;198;48.752;9.180;2023-07-20T06:13:22;5.10;;;2.00;;
422;SDS011;198;48.752;9.180;2023-07-20T06:15:48;2.80;;;1.80;;
422;SDS011;198;48.752;9.180;2023-07-20T06:18:14;3.07;;;2.07;;
422;SDS011;198;48.752;9.180;2023-07-20T06:20:40;3.27;;;1.90;;
422;SDS011;198;48.752;9.180;2023-07-20T06:23:05;3.40;;;2.00;;
422;SDS011;198;48.752;9.180;2023-07-20T06:25:31;3.90;;;2.10;;
422;SDS011;198;48.752;9.180;2023-07-20T06:27:56;4.10;;;1.70;;
422;SDS011;198;48.752;9.180;2023-07-20T06:30:22;5.33;;;1.93;;
422;SDS011;198;48.752;9.180;2023-07-20T06:32:47;5.53;;;2.23;;
422;SDS011;198;48.752;9.180;2023-07-20T06:35:13;8.70;;;2.73;;
422;SDS011;198;48.752;9.180;2023-07-20T06:37:40;1.97;;;1.10;;
422;SDS011;198;48.752;9.180;2023-07-20T06:40:06;6.27;;;2.03;;
422;SDS011;198;48.752;9.180;2023-07-20T06:42:33;7.80;;;2.07;;
422;SDS011;198;48.752;9.180;2023-07-20T06:44:59;3.37;;;1.77;;
422;SDS011;198;48.752;9.180;2023-07-20T06:47:25;5.30;;;1.77;;
422;SDS011;198;48.752;9.180;2023-07-20T06:49:50;2.43;;;1.50;;
422;SDS011;198;48.752;9.180;2023-07-20T06:52:16;3.67;;;1.50;;
422;SDS011;198;48.752;9.180;2023-07-20T06:54:42;7.50;;;2.10;;
422;SDS011;198;48.752;9.180;2023-07-20T06:57:07;2.90;;;1.90;;
422;SDS011;198;48.752;9.180;2023-07-20T06:59:33;5.23;;;2.40;;
422;SDS011;198;48.752;9.180;2023-07-20T07:01:58;4.53;;;1.53;;
422;SDS011;198;48.752;9.180;2023-07-20T07:04:24;2.90;;;1.80;;
422;SDS011;198;48.752;9.180;2023-07-20T07:06:50;6.37;;;2.00;;
422;SDS011;198;48.752;9.180;2023-07-20T07:09:15;6.60;;;2.57;;
422;SDS011;198;48.752;9.180;2023-07-20T07:11:41;4.90;;;2.07;;
422;SDS011;198;48.752;9.180;2023-07-20T07:14:06;7.60;;;2.67;;
422;SDS011;198;48.752;9.180;2023-07-20T07:16:32;4.40;;;2.57;;
422;SDS011;198;48.752;9.180;2023-07-20T07:18:57;4.80;;;1.67;;
422;SDS011;198;48.752;9.180;2023-07-20T07:21:23;7.83;;;2.00;;
422;SDS011;198;48.752;9.180;2023-07-20T07:23:50;2.60;;;2.07;;
422;SDS011;198;48.752;9.180;2023-07-20T07:26:18;2.90;;;2.00;;
422;SDS011;198;48.752;9.180;2023-07-20T07:28:44;2.10;;;1.77;;
422;SDS011;198;48.752;9.180;2023-07-20T07:31:09;5.93;;;2.20;;
422;SDS011;198;48.752;9.180;2023-07-20T07:33:35;4.13;;;2.20;;
422;SDS011;198;48.752;9.180;2023-07-20T07:36:00;2.63;;;1.83;;
422;SDS011;198;48.752;9.180;2023-07-20T07:38:26;3.73;;;1.73;;
422;SDS011;198;48.752;9.180;2023-07-20T07:40:52;5.63;;;2.20;;
422;SDS011;198;48.752;9.180;2023-07-20T07:43:17;3.20;;;1.90;;
422;SDS011;198;48.752;9.180;2023-07-20T07:45:43;9.87;;;1.80;;
422;SDS011;198;48.752;9.180;2023-07-20T07:48:09;4.37;;;2.00;;
422;SDS011;198;48.752;9.180;2023-07-20T07:50:37;3.83;;;2.10;;
422;SDS011;198;48.752;9.180;2023-07-20T07:53:05;6.50;;;1.90;;
422;SDS011;198;48.752;9.180;2023-07-20T07:55:30;4.10;;;2.17;;
422;SDS011;198;48.752;9.180;2023-07-20T07:57:56;8.33;;;2.47;;
422;SDS011;198;48.752;9.180;2023-07-20T08:00:21;6.97;;;2.27;;
422;SDS011;198;48.752;9.180;2023-07-20T08:02:47;7.70;;;2.57;;
422;SDS011;198;48.752;9.180;2023-07-20T08:05:15;3.07;;;1.90;;
422;SDS011;198;48.752;9.180;2023-07-20T08:07:40;3.20;;;2.37;;
422;SDS011;198;48.752;9.180;2023-07-20T08:10:06;3.13;;;2.03;;
422;SDS011;198;48.752;9.180;2023-07-20T08:12:32;1.87;;;1.60;;
422;SDS011;198;48.752;9.180;2023-07-20T08:14:58;4.30;;;1.80;;
422;SDS011;198;48.752;9.180;2023-07-20T08:17:23;3.60;;;2.13;;
422;SDS011;198;48.752;9.180;2023-07-20T08:19:49;5.47;;;2.10;;
422;SDS011;198;48.752;9.180;2023-07-20T08:22:14;3.83;;;2.67;;
422;SDS011;198;48.752;9.180;2023-07-20T08:24:40;5.30;;;2.00;;
422;SDS011;198;48.752;9.180;2023-07-20T08:27:06;4.70;;;2.23;;
422;SDS011;198;48.752;9.180;2023-07-20T08:29:33;4.10;;;2.07;;
422;SDS011;198;48.752;9.180;2023-07-20T08:31:59;3.50;;;2.10;;
422;SDS011;198;48.752;9.180;2023-07-20T08:34:24;11.33;;;2.40;;
422;SDS011;198;48.752;9.180;2023-07-20T08:36:50;3.33;;;2.37;;
422;SDS011;198;48.752;9.180;2023-07-20T08:39:15;3.90;;;2.30;;
422;SDS011;198;48.752;9.180;2023-07-20T08:41:42;8.03;;;2.00;;
422;SDS011;198;48.752;9.180;2023-07-20T08:44:08;5.20;;;2.07;;
422;SDS011;198;48.752;9.180;2023-07-20T08:46:35;8.20;;;1.40;;
422;SDS011;198;48.752;9.180;2023-07-20T08:49:03;2.60;;;1.53;;
422;SDS011;198;48.752;9.180;2023-07-20T08:51:30;15.60;;;2.97;;
422;SDS011;198;48.752;9.180;2023-07-20T08:53:56;3.20;;;1.90;;
422;SDS011;198;48.752;9.180;2023-07-20T08:56:23;3.20;;;1.80;;
422;SDS011;198;48.752;9.180;2023-07-20T08:58:50;4.37;;;1.90;;
422;SDS011;198;48.752;9.180;2023-07-20T09:01:19;4.43;;;2.23;;
422;SDS011;198;48.752;9.180;2023-07-20T09:03:46;4.60;;;1.50;;
422;SDS011;198;48.752;9.180;2023-07-20T09:06:12;5.07;;;1.90;;
422;SDS011;198;48.752;9.180;2023-07-20T09:08:38;5.47;;;2.40;;
422;SDS011;198;48.752;9.180;2023-07-20T09:11:04;8.10;;;2.10;;
422;SDS011;198;48.752;9.180;2023-07-20T09:13:31;3.87;;;1.90;;
422;SDS011;198;48.752;9.180;2023-07-20T09:15:57;2.07;;;1.53;;
422;SDS011;198;48.752;9.180;2023-07-20T09:18:30;5.17;;;2.13;;
422;SDS011;198;48.752;9.180;2023-07-20T09:21:04;8.23;;;1.83;;
422;SDS011;198;48.752;9.180;2023-07-20T09:23:31;3.43;;;2.03;;
422;SDS011;198;48.752;9.180;2023-07-20T09:25:59;6.00;;;1.60;;
422;SDS011;198;48.752;9.180;2023-07-20T09:28:25;1.87;;;1.50;;
422;SDS011;198;48.752;9.180;2023-07-20T09:30:51;4.07;;;1.60;;
422;SDS011;198;48.752;9.180;2023-07-20T09:33:23;3.73;;;1.83;;
422;SDS011;198;48.752;9.180;2023-07-20T09:35:49;2.10;;;1.97;;
422;SDS011;198;48.752;9.180;2023-07-20T09:38:14;8.47;;;2.07;;
422;SDS011;198;48.752;9.180;2023-07-20T09:40:40;3.13;;;2.07;;
422;SDS011;198;48.752;9.180;2023-07-20T09:43:09;2.40;;;1.60;;
422;SDS011;198;48.752;9.180;2023-07-20T09:45:39;4.30;;;2.00;;
422;SDS011;198;48.752;9.180;2023-07-20T09:48:06;2.73;;;1.77;;
422;SDS011;198;48.752;9.180;2023-07-20T09:50:33;5.13;;;1.27;;
422;SDS011;198;48.752;9.180;2023-07-20T09:52:58;2.00;;;1.63;;
422;SDS011;198;48.752;9.180;2023-07-20T09:55:27;6.00;;;1.87;;
422;SDS011;198;48.752;9.180;2023-07-20T09:57:54;4.70;;;1.80;;
422;SDS011;198;48.752;9.180;2023-07-20T10:00:21;4.90;;;1.57;;
422;SDS011;198;48.752;9.180;2023-07-20T10:02:47;1.50;;;1.40;;
422;SDS011;198;48.752;9.180;2023-07-20T10:05:15;1.57;;;1.50;;
422;SDS011;198;48.752;9.180;2023-07-20T10:07:48;2.73;;;1.57;;
422;SDS011;198;48.752;9.180;2023-07-20T10:10:15;3.23;;;1.57;;
422;SDS011;198;48.752;9.180;2023-07-20T10:12:42;4.70;;;1.60;;
422;SDS011;198;48.752;9.180;2023-07-20T10:15:10;3.23;;;1.60;;
422;SDS011;198;48.752;9.180;2023-07-20T10:17:46;2.93;;;1.50;;
422;SDS011;198;48.752;9.180;2023-07-20T10:20:24;2.10;;;1.37;;
422;SDS011;198;48.752;9.180;2023-07-20T10:22:52;4.97;;;1.60;;
422;SDS011;198;48.752;9.180;2023-07-20T10:25:18;4.07;;;1.20;;
422;SDS011;198;48.752;9.180;2023-07-20T10:27:48;1.50;;;1.40;;
422;SDS011;198;48.752;9.180;2023-07-20T10:30:14;2.23;;;1.50;;
422;SDS011;198;48.752;9.180;2023-07-20T10:32:42;5.43;;;1.80;;
422;SDS011;198;48.752;9.180;2023-07-20T10:35:12;4.13;;;1.53;;
422;SDS011;198;48.752;9.180;2023-07-20T10:40:27;1.17;;;1.10;;
422;SDS011;198;48.752;9.180;2023-07-20T10:43:13;2.40;;;1.00;;
422;SDS011;198;48.752;9.180;2023-07-20T10:45:48;1.30;;;1.00;;
422;SDS011;198;48.752;9.180;2023-07-20T10:48:15;1.13;;;0.93;;
422;SDS011;198;48.752;9.180;2023-07-20T10:53:44;2.27;;;1.60;;
422;SDS011;198;48.752;9.180;2023-07-20T10:56:13;1.10;;;0.83;;
422;SDS011;198;48.752;9.180;2023-07-20T10:58:40;3.50;;;1.10;;
422;SDS011;198;48.752;9.180;2023-07-20T11:01:07;1.13;;;1.10;;
422;SDS011;198;48.752;9.180;2023-07-20T11:03:34;1.60;;;1.20;;
422;SDS011;198;48.752;9.180;2023-07-20T11:08:48;2.93;;;1.50;;
422;SDS011;198;48.752;9.180;2023-07-20T11:11:26;1.67;;;1.20;;
422;SDS011;198;48.752;9.180;2023-07-20T11:13:53;2.47;;;1.20;;
422;SDS011;198;48.752;9.180;2023-07-20T11:16:35;5.87;;;0.90;;
422;SDS011;198;48.752;9.180;2023-07-20T11:21:41;0.90;;;0.80;;
422;SDS011;198;48.752;9.180;2023-07-20T11:24:08;1.10;;;1.00;;
422;SDS011;198;48.752;9.180;2023-07-20T11:29:17;3.25;;;1.20;;
422;SDS011;198;48.752;9.180;2023-07-20T11:31:44;1.25;;;1.20;;
422;SDS011;198;48.752;9.180;2023-07-20T11:34:13;0.85;;;0.75;;
422;SDS011;198;48.752;9.180;2023-07-20T11:36:41;1.73;;;0.90;;
422;SDS011;198;48.752;9.180;2023-07-20T11:39:08;1.23;;;1.08;;
422;SDS011;198;48.752;9.180;2023-07-20T11:41:35;1.73;;;0.80;;
422;SDS011;198;48.752;9.180;2023-07-20T11:44:01;3.25;;;1.08;;
422;SDS011;198;48.752;9.180;2023-07-20T11:46:30;1.50;;;0.90;;
422;SDS011;198;48.752;9.180;2023-07-20T11:48:59;3.47;;;1.30;;
422;SDS011;198;48.752;9.180;2023-07-20T11:51:25;1.00;;;0.90;;
422;SDS011;198;48.752;9.180;2023-07-20T11:53:52;3.13;;;0.90;;
422;SDS011;198;48.752;9.180;2023-07-20T11:56:18;4.50;;;1.13;;
422;SDS011;198;48.752;9.180;2023-07-20T11:58:44;1.33;;;1.05;;
422;SDS011;198;48.752;9.180;2023-07-20T12:01:10;1.35;;;1.10;;
422;SDS011;198;48.752;9.180;2023-07-20T12:03:41;1.73;;;0.85;;
422;SDS011;198;48.752;9.180;2023-07-20T12:06:08;2.13;;;1.20;;
422;SDS011;198;48.752;9.180;2023-07-20T12:08:39;2.72;;;1.02;;
422;SDS011;198;48.752;9.180;2023-07-20T12:11:06;2.75;;;1.10;;
422;SDS011;198;48.752;9.180;2023-07-20T12:13:39;1.27;;;0.95;;
422;SDS011;198;48.752;9.180;2023-07-20T12:16:15;1.00;;;0.80;;
422;SDS011;198;48.752;9.180;2023-07-20T12:18:42;1.95;;;0.88;;
422;SDS011;198;48.752;9.180;2023-07-20T12:21:08;2.53;;;0.90;;
422;SDS011;198;48.752;9.180;2023-07-20T12:23:38;3.70;;;1.27;;
422;SDS011;198;48.752;9.180;2023-07-20T12:26:11;2.45;;;0.90;;
422;SDS011;198;48.752;9.180;2023-07-20T12:28:40;6.20;;;0.93;;
422;SDS011;198;48.752;9.180;2023-07-20T12:31:06;3.08;;;1.30;;
422;SDS011;198;48.752;9.180;2023-07-20T12:33:32;2.60;;;1.25;;
422;SDS011;198;48.752;9.180;2023-07-20T12:36:00;1.25;;;0.98;;
422;SDS011;198;48.752;9.180;2023-07-20T12:38:26;1.00;;;0.90;;
422;SDS011;198;48.752;9.180;2023-07-20T12:40:52;1.15;;;1.02;;
422;SDS011;198;48.752;9.180;2023-07-20T12:43:20;1.00;;;0.90;;
422;SDS011;198;48.752;9.180;2023-07-20T12:45:46;1.10;;;0.80;;
422;SDS011;198;48.752;9.180;2023-07-20T12:48:11;2.17;;;1.17;;
422;SDS011;198;48.752;9.180;2023-07-20T12:50:37;1.38;;;1.25;;
422;SDS011;198;48.752;9.180;2023-07-20T12:53:03;1.88;;;1.30;;
422;SDS011;198;48.752;9.180;2023-07-20T12:55:28;2.15;;;1.00;;
422;SDS011;198;48.752;9.180;2023-07-20T12:57:54;1.30;;;1.20;;
422;SDS011;198;48.752;9.180;2023-07-20T13:00:20;1.50;;;1.00;;
422;SDS011;198;48.752;9.180;2023-07-20T13:02:47;1.20;;;1.10;;
422;SDS011;198;48.752;9.180;2023-07-20T13:05:13;4.13;;;1.00;;
422;SDS011;198;48.752;9.180;2023-07-20T13:07:40;1.27;;;1.17;;
422;SDS011;198;48.752;9.180;2023-07-20T13:10:06;5.00;;;0.80;;
422;SDS011;198;48.752;9.180;2023-07-20T13:12:33;1.55;;;1.23;;
422;SDS011;198;48.752;9.180;2023-07-20T13:15:00;1.15;;;0.98;;
422;SDS011;198;48.752;9.180;2023-07-20T13:17:27;1.98;;;1.00;;
422;SDS011;198;48.752;9.180;2023-07-20T13:19:53;1.85;;;1.23;;
422;SDS011;198;48.752;9.180;2023-07-20T13:22:19;0.98;;;0.88;;
422;SDS011;198;48.752;9.180;2023-07-20T13:24:45;2.35;;;1.30;;
422;SDS011;198;48.752;9.180;2023-07-20T13:27:14;0.90;;;0.80;;
422;SDS011;198;48.752;9.180;2023-07-20T13:29:40;4.07;;;1.00;;
422;SDS011;198;48.752;9.180;2023-07-20T13:32:06;2.35;;;0.95;;
422;SDS011;198;48.752;9.180;2023-07-20T13:34:32;3.28;;;1.65;;
422;SDS011;198;48.752;9.180;2023-07-20T13:36:58;1.05;;;0.95;;
422;SDS011;198;48.752;9.180;2023-07-20T13:39:23;1.55;;;0.98;;
422;SDS011;198;48.752;9.180;2023-07-20T13:41:51;2.53;;;1.10;;
422;SDS011;198;48.752;9.180;2023-07-20T13:44:17;2.08;;;1.10;;
422;SDS011;198;48.752;9.180;2023-07-20T13:46:43;1.00;;;0.90;;
422;SDS011;198;48.752;9.180;2023-07-20T13:49:08;2.15;;;1.00;;
422;SDS011;198;48.752;9.180;2023-07-20T13:51:34;1.00;;;0.90;;
422;SDS011;198;48.752;9.180;2023-07-20T13:53:59;1.05;;;0.90;;
422;SDS011;198;48.752;9.180;2023-07-20T13:56:25;1.10;;;1.00;;
422;SDS011;198;48.752;9.180;2023-07-20T13:58:52;2.00;;;1.02;;
422;SDS011;198;48.752;9.180;2023-07-20T14:01:17;1.27;;;1.20;;
422;SDS011;198;48.752;9.180;2023-07-20T14:03:44;0.88;;;0.88;;
422;SDS011;198;48.752;9.180;2023-07-20T14:06:09;2.17;;;1.10;;
422;SDS011;198;48.752;9.180;2023-07-20T14:08:37;1.23;;;1.17;;
422;SDS011;198;48.752;9.180;2023-07-20T14:11:03;1.85;;;0.98;;
422;SDS011;198;48.752;9.180;2023-07-20T14:13:28;2.85;;;0.90;;
422;SDS011;198;48.752;9.180;2023-07-20T14:15:54;5.55;;;1.02;;
422;SDS011;198;48.752;9.180;2023-07-20T14:18:19;2.45;;;1.10;;
422;SDS011;198;48.752;9.180;2023-07-20T14:20:45;0.90;;;0.80;;
422;SDS011;198;48.752;9.180;2023-07-20T14:23:10;1.00;;;0.90;;
422;SDS011;198;48.752;9.180;2023-07-20T14:25:36;1.23;;;1.20;;
422;SDS011;198;48.752;9.180;2023-07-20T14:28:01;0.80;;;0.70;;
422;SDS011;198;48.752;9.180;2023-07-20T14:30:27;1.33;;;1.10;;
422;SDS011;198;48.752;9.180;2023-07-20T14:32:52;1.33;;;1.15;;
422;SDS011;198;48.752;9.180;2023-07-20T14:35:18;1.15;;;0.93;;
422;SDS011;198;48.752;9.180;2023-07-20T14:37:44;2.80;;;0.77;;
422;SDS011;198;48.752;9.180;2023-07-20T14:40:12;3.88;;;1.27;;
422;SDS011;198;48.752;9.180;2023-07-20T14:42:38;1.40;;;0.95;;
422;SDS011;198;48.752;9.180;2023-07-20T14:45:04;1.08;;;0.98;;
422;SDS011;198;48.752;9.180;2023-07-20T14:47:30;1.13;;;1.02;;
422;SDS011;198;48.752;9.180;2023-07-20T14:49:59;0.77;;;0.70;;
422;SDS011;198;48.752;9.180;2023-07-20T14:52:27;1.30;;;1.20;;
422;SDS011;198;48.752;9.180;2023-07-20T14:54:53;1.02;;;0.93;;
422;SDS011;198;48.752;9.180;2023-07-20T14:57:19;1.08;;;1.02;;
422;SDS011;198;48.752;9.180;2023-07-20T14:59:45;1.40;;;1.00;;
422;SDS011;198;48.752;9.180;2023-07-20T15:02:11;1.15;;;1.05;;
422;SDS011;198;48.752;9.180;2023-07-20T15:04:36;1.00;;;0.90;;
422;SDS011;198;48.752;9.180;2023-07-20T15:07:02;1.80;;;1.00;;
422;SDS011;198;48.752;9.180;2023-07-20T15:09:28;1.08;;;0.98;;
422;SDS011;198;48.752;9.180;2023-07-20T15:11:53;4.53;;;1.30;;
422;SDS011;198;48.752;9.180;2023-07-20T15:14:19;0.98;;;0.68;;
422;SDS011;198;48.752;9.180;2023-07-20T15:16:45;3.15;;;1.30;;
422;SDS011;198;48.752;9.180;2023-07-20T15:19:10;1.10;;;1.00;;
422;SDS011;198;48.752;9.180;2023-07-20T15:21:38;1.75;;;1.17;;
422;SDS011;198;48.752;9.180;2023-07-20T15:24:04;1.10;;;1.00;;
422;SDS011;198;48.752;9.180;2023-07-20T15:26:30;1.70;;;1.58;;
422;SDS011;198;48.752;9.180;2023-07-20T15:28:58;1.60;;;0.98;;
422;SDS011;198;48.752;9.180;2023-07-20T15:31:23;1.85;;;1.13;;
422;SDS011;198;48.752;9.180;2023-07-20T15:33:49;2.05;;;1.05;;
422;SDS011;198;48.752;9.180;2023-07-20T15:36:14;1.00;;;0.90;;
422;SDS011;198;48.752;9.180;2023-07-20T15:38:40;1.45;;;1.20;;
422;SDS011;198;48.752;9.180;2023-07-20T15:41:05;2.90;;;1.60;;
422;SDS011;198;48.752;9.180;2023-07-20T15:43:31;1.88;;;1.00;;
422;SDS011;198;48.752;9.180;2023-07-20T15:46:43;0.98;;;0.93;;
422;SDS011;198;48.752;9.180;2023-07-20T15:48:48;1.15;;;1.08;;
422;SDS011;198;48.752;9.180;2023-07-20T15:51:14;3.50;;;1.33;;
422;SDS011;198;48.752;9.180;2023-07-20T15:53:40;2.70;;;1.17;;
422;SDS011;198;48.752;9.180;2023-07-20T15:56:05;0.95;;;0.85;;
422;SDS011;198;48.752;9.180;2023-07-20T15:58:31;1.60;;;1.40;;
422;SDS011;198;48.752;9.180;2023-07-20T16:00:57;4.45;;;1.40;;
422;SDS011;198;48.752;9.180;2023-07-20T16:03:23;2.33;;;1.27;;